createdAt,value
2018-06-04T00:02:39.480Z,50.8
2018-06-04T00:07:35.663Z,50.9
2018-06-04T00:12:31.742Z,50.8
2018-06-04T00:17:27.963Z,50.9
2018-06-04T00:22:24.050Z,51.1
2018-06-04T00:27:20.016Z,50.9
2018-06-04T00:32:15.871Z,50.9
2018-06-04T00:37:11.839Z,50.8
2018-06-04T00:42:09.053Z,51
2018-06-04T00:47:04.453Z,51.3
2018-06-04T00:52:00.523Z,51.4
2018-06-04T00:56:57.101Z,51.2
2018-06-04T01:01:53.102Z,51.1
2018-06-04T01:06:49.329Z,51
2018-06-04T01:11:45.791Z,50.9
2018-06-04T01:16:42.008Z,51
2018-06-04T01:21:37.500Z,51
2018-06-04T01:26:33.684Z,51
2018-06-04T01:31:29.756Z,51.1
2018-06-04T01:36:26.447Z,51.3
2018-06-04T01:41:22.230Z,51.5
2018-06-04T01:46:18.426Z,51.5
2018-06-04T01:51:14.422Z,51.7
2018-06-04T01:56:10.719Z,52
2018-06-04T02:01:06.737Z,52.1
2018-06-04T02:06:02.893Z,52.4
2018-06-04T02:10:58.778Z,52.4
2018-06-04T02:15:54.904Z,52.6
2018-06-04T02:20:50.927Z,52.8
2018-06-04T02:25:47.194Z,52.6
2018-06-04T02:30:43.369Z,53.1
2018-06-04T02:35:39.713Z,53.3
2018-06-04T02:40:36.564Z,53.1
2018-06-04T02:45:32.357Z,53.2
2018-06-04T02:50:28.491Z,53.3
2018-06-04T02:55:24.845Z,53.3
2018-06-04T03:00:21.048Z,53.8
2018-06-04T03:05:17.202Z,54.3
2018-06-04T03:10:13.167Z,54.4
2018-06-04T03:15:09.463Z,54.7
2018-06-04T03:20:05.726Z,54.7
2018-06-04T03:25:01.866Z,55.7
2018-06-04T03:29:57.755Z,55.8
2018-06-04T03:34:54.221Z,56.6
2018-06-04T03:39:50.000Z,56.3
2018-06-04T03:44:46.093Z,56
2018-06-04T03:49:42.208Z,56.1
2018-06-04T03:54:38.330Z,56.3
2018-06-04T03:59:34.430Z,56.3
2018-06-04T04:04:30.380Z,57
2018-06-04T04:09:26.512Z,57
2018-06-04T04:14:22.236Z,56.7
2018-06-04T04:19:18.410Z,56.7
2018-06-04T04:24:14.552Z,56.8
2018-06-04T04:29:10.667Z,57.2
2018-06-04T04:34:06.958Z,57
2018-06-04T04:39:03.340Z,57.1
2018-06-04T04:43:59.504Z,57.2
2018-06-04T04:48:55.594Z,57.4
2018-06-04T04:53:51.909Z,57
2018-06-04T04:58:47.980Z,57.1
2018-06-04T05:03:44.333Z,56.9
2018-06-04T05:08:40.405Z,57.1
2018-06-04T05:13:36.657Z,57
2018-06-04T05:18:32.596Z,57
2018-06-04T05:23:28.768Z,57.1
2018-06-04T05:28:24.361Z,57.5
2018-06-04T05:33:20.440Z,57.1
2018-06-04T05:38:16.150Z,57.3
2018-06-04T05:43:12.383Z,57.7
2018-06-04T05:48:08.168Z,57.3
2018-06-04T05:53:04.617Z,57.1
2018-06-04T05:58:00.404Z,57
2018-06-04T06:02:56.350Z,56.8
2018-06-04T06:07:52.512Z,56.5
2018-06-04T06:12:48.718Z,56.9
2018-06-04T06:17:44.540Z,56.5
2018-06-04T06:22:40.870Z,56.7
2018-06-04T06:27:36.882Z,56.9
2018-06-04T06:32:32.887Z,57.2
2018-06-04T06:37:30.070Z,57.2
2018-06-04T06:42:25.980Z,56.9
2018-06-04T06:47:21.573Z,56.6
2018-06-04T06:52:17.709Z,56.4
2018-06-04T06:57:14.006Z,56.5
2018-06-04T07:02:10.076Z,56.2
2018-06-04T07:07:06.425Z,56
2018-06-04T07:12:02.670Z,55.7
2018-06-04T07:16:58.820Z,55.5
2018-06-04T07:21:54.977Z,55.2
2018-06-04T07:26:51.183Z,55.2
2018-06-04T07:31:47.278Z,54.8
2018-06-04T07:36:42.992Z,54.7
2018-06-04T07:41:39.113Z,54.8
2018-06-04T07:46:34.813Z,54.6
2018-06-04T07:51:31.242Z,53.8
2018-06-04T07:56:27.461Z,53.6
2018-06-04T08:01:23.656Z,53
2018-06-04T08:06:19.763Z,52.9
2018-06-04T08:11:16.016Z,52.2
2018-06-04T08:16:12.177Z,52.2
2018-06-04T08:21:08.451Z,51.5
2018-06-04T08:26:04.521Z,51.6
2018-06-04T08:31:00.885Z,50.8
2018-06-04T08:35:57.290Z,50.5
2018-06-04T08:40:54.669Z,49.4
2018-06-04T08:45:49.730Z,49
2018-06-04T08:50:45.488Z,48.9
2018-06-04T08:55:41.871Z,48.3
2018-06-04T09:00:37.990Z,48.6
2018-06-04T09:05:34.556Z,48.7
2018-06-04T09:10:30.599Z,48.2
2018-06-04T09:15:26.563Z,47.6
2018-06-04T09:20:22.344Z,47.2
2018-06-04T09:25:18.161Z,45.1
2018-06-04T09:30:14.280Z,43.1
2018-06-04T09:35:10.731Z,43.7
2018-06-04T09:40:07.212Z,41.3
2018-06-04T09:45:03.470Z,41.6
2018-06-04T09:49:59.896Z,41.6
2018-06-04T09:54:56.312Z,41.4
2018-06-04T09:59:52.256Z,41.9
2018-06-04T10:04:48.801Z,39.8
2018-06-04T10:09:45.552Z,40.5
2018-06-04T10:14:41.754Z,39.1
2018-06-04T10:19:38.246Z,40.3
2018-06-04T10:24:34.641Z,39.7
2018-06-04T10:29:30.834Z,39.5
2018-06-04T10:34:27.015Z,39.2
2018-06-04T10:39:22.890Z,40.9
2018-06-04T10:44:19.110Z,40.8
2018-06-04T10:49:15.485Z,41.4
2018-06-04T10:54:11.644Z,41.4
2018-06-04T10:59:07.951Z,40.9
2018-06-04T11:04:04.149Z,40.2
2018-06-04T11:09:00.132Z,40.2
2018-06-04T11:13:56.573Z,39.6
2018-06-04T11:18:53.931Z,39.8
2018-06-04T11:23:49.872Z,39.2
2018-06-04T11:28:46.260Z,38.4
2018-06-04T11:33:42.350Z,37.5
2018-06-04T11:38:38.760Z,37.4
2018-06-04T11:43:35.048Z,37
2018-06-04T11:48:31.168Z,36.5
2018-06-04T11:53:27.354Z,35.6
2018-06-04T11:58:23.599Z,35.7
2018-06-04T12:03:20.007Z,35.4
2018-06-04T12:08:16.337Z,34.7
2018-06-04T12:13:12.539Z,34.6
2018-06-04T12:18:09.509Z,34.3
2018-06-04T12:23:05.594Z,34.2
2018-06-04T12:28:02.091Z,33.8
2018-06-04T12:32:58.808Z,33.5
2018-06-04T12:37:55.292Z,34.1
2018-06-04T12:42:50.859Z,33.2
2018-06-04T12:47:47.290Z,33.3
2018-06-04T12:52:43.055Z,34.4
2018-06-04T12:57:39.113Z,35.2
2018-06-04T13:02:35.392Z,35.9
2018-06-04T13:07:31.364Z,35.8
2018-06-04T13:12:28.198Z,34.4
2018-06-04T13:17:24.510Z,33.4
2018-06-04T13:22:20.977Z,33.1
2018-06-04T13:27:16.612Z,33.2
2018-06-04T13:32:12.625Z,32.7
2018-06-04T13:37:09.017Z,33.1
2018-06-04T13:42:05.070Z,33.1
2018-06-04T13:47:01.017Z,33.2
2018-06-04T13:51:57.019Z,33.8
2018-06-04T13:56:53.102Z,34.7
2018-06-04T14:01:49.610Z,35
2018-06-04T14:06:45.300Z,36.2
2018-06-04T14:11:41.780Z,36.6
2018-06-04T14:16:37.948Z,37
2018-06-04T14:21:34.311Z,37.3
2018-06-04T14:26:30.674Z,37.5
2018-06-04T14:31:26.968Z,37.6
2018-06-04T14:36:23.272Z,37.4
2018-06-04T14:41:19.605Z,37.2
2018-06-04T14:46:15.991Z,37.3
2018-06-04T14:51:12.313Z,37.1
2018-06-04T14:56:08.394Z,37.5
2018-06-04T15:01:04.543Z,37.8
2018-06-04T15:06:00.835Z,37.7
2018-06-04T15:10:56.513Z,37.9
2018-06-04T15:15:52.746Z,37.6
2018-06-04T15:20:49.249Z,37.1
2018-06-04T15:25:45.541Z,37.2
2018-06-04T15:30:41.979Z,36.9
2018-06-04T15:35:38.306Z,36.4
2018-06-04T15:40:34.623Z,36.4
2018-06-04T15:45:31.051Z,36.2
2018-06-04T15:50:27.272Z,36.6
2018-06-04T15:55:23.648Z,37.4
2018-06-04T16:00:19.838Z,38.1
2018-06-04T16:05:16.176Z,38.6
2018-06-04T16:10:12.314Z,38.8
2018-06-04T16:15:08.304Z,39.3
2018-06-04T16:20:04.499Z,39.5
2018-06-04T16:25:00.969Z,39.6
2018-06-04T16:29:57.071Z,39.7
2018-06-04T16:34:53.461Z,40.3
2018-06-04T16:39:49.813Z,40.4
2018-06-04T16:44:46.070Z,40.7
2018-06-04T16:49:42.198Z,40.1
2018-06-04T16:54:38.460Z,40.1
2018-06-04T16:59:35.484Z,39.8
2018-06-04T17:04:30.796Z,39.9
2018-06-04T17:09:26.807Z,39.9
2018-06-04T17:14:22.911Z,39.7
2018-06-04T17:19:18.842Z,39.7
2018-06-04T17:24:14.991Z,40.2
2018-06-04T17:29:10.817Z,40.4
2018-06-04T17:34:07.140Z,40.5
2018-06-04T17:39:03.171Z,41.2
2018-06-04T17:43:59.437Z,41.8
2018-06-04T17:48:55.423Z,42.2
2018-06-04T17:53:51.591Z,42.3
2018-06-04T17:58:47.490Z,42
2018-06-04T18:03:43.858Z,41.6
2018-06-04T18:08:39.889Z,41.6
2018-06-04T18:13:36.175Z,41.8
2018-06-04T18:18:32.271Z,41.9
2018-06-04T18:23:28.616Z,42.1
2018-06-04T18:28:24.726Z,42
2018-06-04T18:33:21.025Z,41.9
2018-06-04T18:38:17.161Z,41.7
2018-06-04T18:43:13.721Z,41.3
2018-06-04T18:48:09.421Z,41.4
2018-06-04T18:53:05.449Z,41.3
2018-06-04T18:58:01.572Z,41.3
2018-06-04T19:02:58.107Z,41
2018-06-04T19:07:54.303Z,41.6
2018-06-04T19:12:50.484Z,43.1
2018-06-04T19:17:46.706Z,44.4
2018-06-04T19:22:42.810Z,45.8
2018-06-04T19:27:38.615Z,45.7
2018-06-04T19:32:34.764Z,47.1
2018-06-04T19:37:30.995Z,47.6
2018-06-04T19:42:26.831Z,47.7
2018-06-04T19:47:23.148Z,48.1
2018-06-04T19:52:20.131Z,48.8
2018-06-04T19:57:15.543Z,49.9
2018-06-04T20:02:12.497Z,49.8
2018-06-04T20:07:07.683Z,50.8
2018-06-04T20:12:03.945Z,51.9
2018-06-04T20:16:59.795Z,52.2
2018-06-04T20:21:59.487Z,52.4
2018-06-04T20:26:54.576Z,52.4
2018-06-04T20:31:50.005Z,52
2018-06-04T20:36:46.277Z,51.4
2018-06-04T20:41:42.431Z,51.3
2018-06-04T20:46:38.247Z,50.9
2018-06-04T20:51:34.980Z,50.9
2018-06-04T20:56:30.928Z,51.3
2018-06-04T21:01:27.348Z,51.8
2018-06-04T21:06:23.604Z,51.7
2018-06-04T21:11:19.452Z,51.6
2018-06-04T21:16:15.653Z,51.4
2018-06-04T21:21:12.084Z,51
2018-06-04T21:26:08.054Z,51
2018-06-04T21:31:04.110Z,51.3
2018-06-04T21:36:00.430Z,51.7
2018-06-04T21:40:56.737Z,52.2
2018-06-04T21:45:53.108Z,52
2018-06-04T21:50:49.202Z,51.9
2018-06-04T21:55:45.305Z,52.4
2018-06-04T22:00:41.562Z,52.3
2018-06-04T22:05:37.516Z,52.3
2018-06-04T22:10:34.203Z,52.5
2018-06-04T22:15:30.081Z,52.1
2018-06-04T22:20:25.830Z,52.4
2018-06-04T22:25:21.837Z,52.7
2018-06-04T22:30:18.021Z,53
2018-06-04T22:35:13.924Z,53.3
2018-06-04T22:40:09.903Z,53.2
2018-06-04T22:45:06.143Z,53.6
2018-06-04T22:50:02.550Z,53.4
2018-06-04T22:54:58.966Z,53.2
2018-06-04T22:59:55.227Z,53.4
2018-06-04T23:04:51.282Z,53.4
2018-06-04T23:09:47.208Z,53.9
2018-06-04T23:14:43.294Z,54
2018-06-04T23:19:39.456Z,54.5
2018-06-04T23:24:35.859Z,54.9
2018-06-04T23:29:31.956Z,55.5
2018-06-04T23:34:28.244Z,55.3
2018-06-04T23:39:24.531Z,55.3
2018-06-04T23:44:20.675Z,55.5
2018-06-04T23:49:16.776Z,55.4
2018-06-04T23:54:13.262Z,55.1
2018-06-04T23:59:09.422Z,55.3
